sensor_id;sensor_type;location;lat;lon;timestamp;P1;durP1;ratioP1;P2;durP2;ratioP2
67162;SDS011;54092;53.088;8.850;2023-11-22T00:00:01;12.15;;;6.18;;
67162;SDS011;54092;53.088;8.850;2023-11-22T00:02:27;17.60;;;6.22;;
67162;SDS011;54092;53.088;8.850;2023-11-22T00:04:54;12.18;;;5.95;;
67162;SDS011;54092;53.088;8.850;2023-11-22T00:07:20;14.20;;;6.35;;
67162;SDS011;54092;53.088;8.850;2023-11-22T00:09:46;14.00;;;6.38;;
67162;SDS011;54092;53.088;8.850;2023-11-22T00:12:12;11.77;;;6.28;;
67162;SDS011;54092;53.088;8.850;2023-11-22T00:14:38;13.38;;;6.55;;
67162;SDS011;54092;53.088;8.850;2023-11-22T00:17:03;12.88;;;5.97;;
67162;SDS011;54092;53.088;8.850;2023-11-22T00:19:29;11.55;;;5.07;;
67162;SDS011;54092;53.088;8.850;2023-11-22T00:21:55;16.30;;;6.38;;
67162;SDS011;54092;53.088;8.850;2023-11-22T00:24:21;14.32;;;6.53;;
67162;SDS011;54092;53.088;8.850;2023-11-22T00:26:46;13.35;;;5.88;;
67162;SDS011;54092;53.088;8.850;2023-11-22T00:29:12;12.48;;;5.07;;
67162;SDS011;54092;53.088;8.850;2023-11-22T00:31:37;11.45;;;5.80;;
67162;SDS011;54092;53.088;8.850;2023-11-22T00:34:03;11.25;;;5.65;;
67162;SDS011;54092;53.088;8.850;2023-11-22T00:36:28;12.95;;;5.70;;
67162;SDS011;54092;53.088;8.850;2023-11-22T00:38:54;12.75;;;5.32;;
67162;SDS011;54092;53.088;8.850;2023-11-22T00:41:20;9.55;;;5.28;;
67162;SDS011;54092;53.088;8.850;2023-11-22T00:43:45;13.48;;;5.43;;
67162;SDS011;54092;53.088;8.850;2023-11-22T00:46:11;11.43;;;5.50;;
67162;SDS011;54092;53.088;8.850;2023-11-22T00:48:36;11.52;;;5.57;;
67162;SDS011;54092;53.088;8.850;2023-11-22T00:51:03;14.23;;;5.82;;
67162;SDS011;54092;53.088;8.850;2023-11-22T00:53:33;12.55;;;5.93;;
67162;SDS011;54092;53.088;8.850;2023-11-22T00:56:01;13.82;;;6.03;;
67162;SDS011;54092;53.088;8.850;2023-11-22T00:58:27;11.55;;;5.45;;
67162;SDS011;54092;53.088;8.850;2023-11-22T01:00:52;17.17;;;6.85;;
67162;SDS011;54092;53.088;8.850;2023-11-22T01:03:18;12.32;;;5.97;;
67162;SDS011;54092;53.088;8.850;2023-11-22T01:05:44;12.98;;;5.68;;
67162;SDS011;54092;53.088;8.850;2023-11-22T01:08:11;13.00;;;6.15;;
67162;SDS011;54092;53.088;8.850;2023-11-22T01:10:38;10.30;;;5.05;;
67162;SDS011;54092;53.088;8.850;2023-11-22T01:13:04;12.00;;;5.60;;
67162;SDS011;54092;53.088;8.850;2023-11-22T01:15:29;11.23;;;5.07;;
67162;SDS011;54092;53.088;8.850;2023-11-22T01:17:55;12.32;;;5.70;;
67162;SDS011;54092;53.088;8.850;2023-11-22T01:20:20;13.00;;;6.38;;
67162;SDS011;54092;53.088;8.850;2023-11-22T01:22:48;11.68;;;5.47;;
67162;SDS011;54092;53.088;8.850;2023-11-22T01:25:13;13.45;;;6.20;;
67162;SDS011;54092;53.088;8.850;2023-11-22T01:27:39;14.70;;;5.60;;
67162;SDS011;54092;53.088;8.850;2023-11-22T01:30:05;14.48;;;6.13;;
67162;SDS011;54092;53.088;8.850;2023-11-22T01:32:34;13.25;;;6.03;;
67162;SDS011;54092;53.088;8.850;2023-11-22T01:35:00;13.43;;;5.75;;
67162;SDS011;54092;53.088;8.850;2023-11-22T01:37:26;11.93;;;5.35;;
67162;SDS011;54092;53.088;8.850;2023-11-22T01:39:52;12.75;;;5.55;;
67162;SDS011;54092;53.088;8.850;2023-11-22T01:42:19;12.38;;;6.05;;
67162;SDS011;54092;53.088;8.850;2023-11-22T01:44:45;13.90;;;5.97;;
67162;SDS011;54092;53.088;8.850;2023-11-22T01:47:12;13.23;;;5.80;;
67162;SDS011;54092;53.088;8.850;2023-11-22T01:49:39;15.68;;;6.75;;
67162;SDS011;54092;53.088;8.850;2023-11-22T01:52:04;14.20;;;6.05;;
67162;SDS011;54092;53.088;8.850;2023-11-22T01:54:30;12.10;;;5.75;;
67162;SDS011;54092;53.088;8.850;2023-11-22T01:56:57;9.10;;;4.90;;
67162;SDS011;54092;53.088;8.850;2023-11-22T01:59:23;10.65;;;5.32;;
67162;SDS011;54092;53.088;8.850;2023-11-22T02:01:51;13.32;;;5.65;;
67162;SDS011;54092;53.088;8.850;2023-11-22T02:04:17;14.23;;;6.18;;
67162;SDS011;54092;53.088;8.850;2023-11-22T02:06:43;13.35;;;5.82;;
67162;SDS011;54092;53.088;8.850;2023-11-22T02:09:09;14.80;;;5.97;;
67162;SDS011;54092;53.088;8.850;2023-11-22T02:11:38;15.18;;;6.45;;
67162;SDS011;54092;53.088;8.850;2023-11-22T02:14:04;11.88;;;5.45;;
67162;SDS011;54092;53.088;8.850;2023-11-22T02:16:32;10.88;;;5.35;;
67162;SDS011;54092;53.088;8.850;2023-11-22T02:18:57;11.25;;;5.65;;
67162;SDS011;54092;53.088;8.850;2023-11-22T02:21:23;14.32;;;6.15;;
67162;SDS011;54092;53.088;8.850;2023-11-22T02:23:48;10.63;;;5.18;;
67162;SDS011;54092;53.088;8.850;2023-11-22T02:26:14;10.57;;;5.25;;
67162;SDS011;54092;53.088;8.850;2023-11-22T02:28:42;11.68;;;5.13;;
67162;SDS011;54092;53.088;8.850;2023-11-22T02:31:08;12.63;;;6.15;;
67162;SDS011;54092;53.088;8.850;2023-11-22T02:33:34;10.77;;;5.07;;
67162;SDS011;54092;53.088;8.850;2023-11-22T02:36:00;12.57;;;6.00;;
67162;SDS011;54092;53.088;8.850;2023-11-22T02:38:27;12.32;;;5.25;;
67162;SDS011;54092;53.088;8.850;2023-11-22T02:40:53;13.20;;;5.50;;
67162;SDS011;54092;53.088;8.850;2023-11-22T02:43:19;10.10;;;5.40;;
67162;SDS011;54092;53.088;8.850;2023-11-22T02:45:45;9.50;;;4.82;;
67162;SDS011;54092;53.088;8.850;2023-11-22T02:48:11;11.63;;;5.00;;
67162;SDS011;54092;53.088;8.850;2023-11-22T02:50:38;11.57;;;5.47;;
67162;SDS011;54092;53.088;8.850;2023-11-22T02:53:04;13.23;;;5.50;;
67162;SDS011;54092;53.088;8.850;2023-11-22T02:55:30;12.82;;;5.85;;
67162;SDS011;54092;53.088;8.850;2023-11-22T02:57:55;14.52;;;5.68;;
67162;SDS011;54092;53.088;8.850;2023-11-22T03:00:21;12.52;;;5.55;;
67162;SDS011;54092;53.088;8.850;2023-11-22T03:02:47;11.30;;;5.45;;
67162;SDS011;54092;53.088;8.850;2023-11-22T03:05:18;16.67;;;5.65;;
67162;SDS011;54092;53.088;8.850;2023-11-22T03:07:47;13.85;;;6.30;;
67162;SDS011;54092;53.088;8.850;2023-11-22T03:10:16;13.80;;;5.60;;
67162;SDS011;54092;53.088;8.850;2023-11-22T03:12:43;13.75;;;5.50;;
67162;SDS011;54092;53.088;8.850;2023-11-22T03:15:09;11.52;;;5.90;;
67162;SDS011;54092;53.088;8.850;2023-11-22T03:17:35;12.32;;;5.78;;
67162;SDS011;54092;53.088;8.850;2023-11-22T03:20:03;12.25;;;5.20;;
67162;SDS011;54092;53.088;8.850;2023-11-22T03:22:34;12.60;;;6.22;;
67162;SDS011;54092;53.088;8.850;2023-11-22T03:25:00;11.68;;;5.88;;
67162;SDS011;54092;53.088;8.850;2023-11-22T03:27:27;12.82;;;5.72;;
67162;SDS011;54092;53.088;8.850;2023-11-22T03:29:52;14.05;;;6.43;;
67162;SDS011;54092;53.088;8.850;2023-11-22T03:32:18;11.82;;;6.03;;
67162;SDS011;54092;53.088;8.850;2023-11-22T03:34:43;9.60;;;4.95;;
67162;SDS011;54092;53.088;8.850;2023-11-22T03:37:09;13.85;;;5.63;;
67162;SDS011;54092;53.088;8.850;2023-11-22T03:39:36;11.45;;;5.47;;
67162;SDS011;54092;53.088;8.850;2023-11-22T03:42:01;12.75;;;5.40;;
67162;SDS011;54092;53.088;8.850;2023-11-22T03:44:27;11.73;;;5.45;;
67162;SDS011;54092;53.088;8.850;2023-11-22T03:46:53;15.18;;;5.75;;
67162;SDS011;54092;53.088;8.850;2023-11-22T03:49:19;14.57;;;5.65;;
67162;SDS011;54092;53.088;8.850;2023-11-22T03:51:44;12.10;;;5.72;;
67162;SDS011;54092;53.088;8.850;2023-11-22T03:54:11;14.95;;;5.90;;
67162;SDS011;54092;53.088;8.850;2023-11-22T03:56:37;13.27;;;5.72;;
67162;SDS011;54092;53.088;8.850;2023-11-22T03:59:03;12.13;;;5.65;;
67162;SDS011;54092;53.088;8.850;2023-11-22T04:01:28;11.75;;;5.28;;
67162;SDS011;54092;53.088;8.850;2023-11-22T04:03:54;11.32;;;5.65;;
67162;SDS011;54092;53.088;8.850;2023-11-22T04:06:20;12.75;;;5.68;;
67162;SDS011;54092;53.088;8.850;2023-11-22T04:08:45;12.77;;;5.72;;
67162;SDS011;54092;53.088;8.850;2023-11-22T04:11:12;12.65;;;5.90;;
67162;SDS011;54092;53.088;8.850;2023-11-22T04:13:38;10.90;;;5.57;;
67162;SDS011;54092;53.088;8.850;2023-11-22T04:16:04;13.20;;;5.65;;
67162;SDS011;54092;53.088;8.850;2023-11-22T04:18:33;11.80;;;5.00;;
67162;SDS011;54092;53.088;8.850;2023-11-22T04:21:02;12.55;;;5.70;;
67162;SDS011;54092;53.088;8.850;2023-11-22T04:23:30;10.60;;;5.10;;
67162;SDS011;54092;53.088;8.850;2023-11-22T04:25:56;10.10;;;5.07;;
67162;SDS011;54092;53.088;8.850;2023-11-22T04:28:23;11.13;;;5.88;;
67162;SDS011;54092;53.088;8.850;2023-11-22T04:30:49;13.27;;;5.82;;
67162;SDS011;54092;53.088;8.850;2023-11-22T04:33:14;14.35;;;6.45;;
67162;SDS011;54092;53.088;8.850;2023-11-22T04:35:40;10.20;;;5.32;;
67162;SDS011;54092;53.088;8.850;2023-11-22T04:38:06;14.05;;;5.90;;
67162;SDS011;54092;53.088;8.850;2023-11-22T04:40:32;12.75;;;5.68;;
67162;SDS011;54092;53.088;8.850;2023-11-22T04:42:58;11.82;;;4.95;;
67162;SDS011;54092;53.088;8.850;2023-11-22T04:45:24;12.80;;;5.10;;
67162;SDS011;54092;53.088;8.850;2023-11-22T04:47:49;15.02;;;5.90;;
67162;SDS011;54092;53.088;8.850;2023-11-22T04:50:15;11.77;;;5.07;;
67162;SDS011;54092;53.088;8.850;2023-11-22T04:52:41;13.20;;;5.07;;
67162;SDS011;54092;53.088;8.850;2023-11-22T04:55:06;12.43;;;5.60;;
67162;SDS011;54092;53.088;8.850;2023-11-22T04:57:32;12.63;;;5.25;;
67162;SDS011;54092;53.088;8.850;2023-11-22T04:59:58;14.55;;;5.90;;
67162;SDS011;54092;53.088;8.850;2023-11-22T05:02:25;11.13;;;5.60;;
67162;SDS011;54092;53.088;8.850;2023-11-22T05:04:51;13.75;;;6.13;;
67162;SDS011;54092;53.088;8.850;2023-11-22T05:07:17;14.05;;;6.22;;
67162;SDS011;54092;53.088;8.850;2023-11-22T05:09:44;13.43;;;5.53;;
67162;SDS011;54092;53.088;8.850;2023-11-22T05:12:09;10.52;;;4.88;;
67162;SDS011;54092;53.088;8.850;2023-11-22T05:14:36;10.20;;;5.40;;
67162;SDS011;54092;53.088;8.850;2023-11-22T05:17:02;9.57;;;5.15;;
67162;SDS011;54092;53.088;8.850;2023-11-22T05:19:29;10.13;;;5.30;;
67162;SDS011;54092;53.088;8.850;2023-11-22T05:21:55;12.57;;;5.85;;
67162;SDS011;54092;53.088;8.850;2023-11-22T05:24:20;11.43;;;5.47;;
67162;SDS011;54092;53.088;8.850;2023-11-22T05:26:46;12.98;;;6.00;;
67162;SDS011;54092;53.088;8.850;2023-11-22T05:29:11;12.63;;;5.45;;
67162;SDS011;54092;53.088;8.850;2023-11-22T05:31:37;13.00;;;5.40;;
67162;SDS011;54092;53.088;8.850;2023-11-22T05:34:03;13.65;;;6.32;;
67162;SDS011;54092;53.088;8.850;2023-11-22T05:36:28;12.70;;;5.63;;
67162;SDS011;54092;53.088;8.850;2023-11-22T05:38:54;14.63;;;5.70;;
67162;SDS011;54092;53.088;8.850;2023-11-22T05:41:23;10.52;;;5.25;;
67162;SDS011;54092;53.088;8.850;2023-11-22T05:43:50;12.00;;;5.20;;
67162;SDS011;54092;53.088;8.850;2023-11-22T05:46:17;14.82;;;5.75;;
67162;SDS011;54092;53.088;8.850;2023-11-22T05:48:46;12.75;;;5.30;;
67162;SDS011;54092;53.088;8.850;2023-11-22T05:51:15;13.65;;;6.53;;
67162;SDS011;54092;53.088;8.850;2023-11-22T05:53:41;11.77;;;5.72;;
67162;SDS011;54092;53.088;8.850;2023-11-22T05:56:07;13.80;;;5.88;;
67162;SDS011;54092;53.088;8.850;2023-11-22T05:58:33;12.25;;;6.00;;
67162;SDS011;54092;53.088;8.850;2023-11-22T06:01:03;15.48;;;6.07;;
67162;SDS011;54092;53.088;8.850;2023-11-22T06:03:32;10.83;;;5.00;;
67162;SDS011;54092;53.088;8.850;2023-11-22T06:05:58;12.32;;;5.28;;
67162;SDS011;54092;53.088;8.850;2023-11-22T06:08:24;12.20;;;5.13;;
67162;SDS011;54092;53.088;8.850;2023-11-22T06:10:49;11.07;;;5.35;;
67162;SDS011;54092;53.088;8.850;2023-11-22T06:13:16;9.80;;;5.20;;
67162;SDS011;54092;53.088;8.850;2023-11-22T06:15:42;10.57;;;5.15;;
67162;SDS011;54092;53.088;8.850;2023-11-22T06:18:07;10.45;;;5.75;;
67162;SDS011;54092;53.088;8.850;2023-11-22T06:20:33;15.18;;;6.05;;
67162;SDS011;54092;53.088;8.850;2023-11-22T06:22:59;12.63;;;6.25;;
67162;SDS011;54092;53.088;8.850;2023-11-22T06:25:24;11.73;;;5.07;;
67162;SDS011;54092;53.088;8.850;2023-11-22T06:27:50;13.98;;;5.82;;
67162;SDS011;54092;53.088;8.850;2023-11-22T06:30:15;12.63;;;5.45;;
67162;SDS011;54092;53.088;8.850;2023-11-22T06:32:41;14.00;;;6.07;;
67162;SDS011;54092;53.088;8.850;2023-11-22T06:35:10;14.43;;;5.45;;
67162;SDS011;54092;53.088;8.850;2023-11-22T06:37:40;11.55;;;6.25;;
67162;SDS011;54092;53.088;8.850;2023-11-22T06:40:06;12.02;;;4.95;;
67162;SDS011;54092;53.088;8.850;2023-11-22T06:42:33;16.70;;;6.75;;
67162;SDS011;54092;53.088;8.850;2023-11-22T06:44:59;16.48;;;5.95;;
67162;SDS011;54092;53.088;8.850;2023-11-22T06:47:26;17.08;;;6.00;;
67162;SDS011;54092;53.088;8.850;2023-11-22T06:49:52;13.13;;;5.80;;
67162;SDS011;54092;53.088;8.850;2023-11-22T06:52:18;12.40;;;6.30;;
67162;SDS011;54092;53.088;8.850;2023-11-22T06:54:44;13.00;;;5.57;;
67162;SDS011;54092;53.088;8.850;2023-11-22T06:57:09;12.82;;;5.78;;
67162;SDS011;54092;53.088;8.850;2023-11-22T06:59:35;12.05;;;6.60;;
67162;SDS011;54092;53.088;8.850;2023-11-22T07:02:00;14.80;;;5.85;;
67162;SDS011;54092;53.088;8.850;2023-11-22T07:04:26;13.13;;;6.50;;
67162;SDS011;54092;53.088;8.850;2023-11-22T07:06:52;15.93;;;6.70;;
67162;SDS011;54092;53.088;8.850;2023-11-22T07:09:18;12.65;;;6.32;;
67162;SDS011;54092;53.088;8.850;2023-11-22T07:11:44;16.10;;;6.80;;
67162;SDS011;54092;53.088;8.850;2023-11-22T07:14:10;12.40;;;6.32;;
67162;SDS011;54092;53.088;8.850;2023-11-22T07:16:35;14.90;;;7.50;;
67162;SDS011;54092;53.088;8.850;2023-11-22T07:19:02;15.98;;;8.57;;
67162;SDS011;54092;53.088;8.850;2023-11-22T07:21:28;16.70;;;7.72;;
67162;SDS011;54092;53.088;8.850;2023-11-22T07:23:55;16.73;;;7.68;;
67162;SDS011;54092;53.088;8.850;2023-11-22T07:26:21;15.25;;;7.60;;
67162;SDS011;54092;53.088;8.850;2023-11-22T07:28:46;17.88;;;7.95;;
67162;SDS011;54092;53.088;8.850;2023-11-22T07:31:12;18.35;;;7.72;;
67162;SDS011;54092;53.088;8.850;2023-11-22T07:33:39;16.10;;;8.20;;
67162;SDS011;54092;53.088;8.850;2023-11-22T07:36:05;17.90;;;6.82;;
67162;SDS011;54092;53.088;8.850;2023-11-22T07:38:31;21.73;;;7.85;;
67162;SDS011;54092;53.088;8.850;2023-11-22T07:40:57;15.88;;;7.25;;
67162;SDS011;54092;53.088;8.850;2023-11-22T07:43:23;16.65;;;7.25;;
67162;SDS011;54092;53.088;8.850;2023-11-22T07:45:48;18.75;;;7.75;;
67162;SDS011;54092;53.088;8.850;2023-11-22T07:48:16;14.63;;;7.25;;
67162;SDS011;54092;53.088;8.850;2023-11-22T07:50:41;20.02;;;8.40;;
67162;SDS011;54092;53.088;8.850;2023-11-22T07:53:09;16.98;;;7.82;;
67162;SDS011;54092;53.088;8.850;2023-11-22T07:55:36;15.68;;;7.03;;
67162;SDS011;54092;53.088;8.850;2023-11-22T07:58:02;14.55;;;7.25;;
67162;SDS011;54092;53.088;8.850;2023-11-22T08:00:31;14.25;;;7.22;;
67162;SDS011;54092;53.088;8.850;2023-11-22T08:02:58;17.10;;;8.10;;
67162;SDS011;54092;53.088;8.850;2023-11-22T08:05:26;16.05;;;8.02;;
67162;SDS011;54092;53.088;8.850;2023-11-22T08:07:53;16.25;;;7.63;;
67162;SDS011;54092;53.088;8.850;2023-11-22T08:10:18;13.63;;;6.97;;
67162;SDS011;54092;53.088;8.850;2023-11-22T08:12:45;16.88;;;7.65;;
67162;SDS011;54092;53.088;8.850;2023-11-22T08:15:15;16.95;;;7.40;;
67162;SDS011;54092;53.088;8.850;2023-11-22T08:17:41;15.57;;;7.40;;
67162;SDS011;54092;53.088;8.850;2023-11-22T08:20:08;16.33;;;7.45;;
67162;SDS011;54092;53.088;8.850;2023-11-22T08:22:42;15.45;;;7.13;;
67162;SDS011;54092;53.088;8.850;2023-11-22T08:25:07;15.18;;;7.47;;
67162;SDS011;54092;53.088;8.850;2023-11-22T08:27:34;15.48;;;7.50;;
67162;SDS011;54092;53.088;8.850;2023-11-22T08:30:00;12.27;;;6.97;;
67162;SDS011;54092;53.088;8.850;2023-11-22T08:32:33;13.93;;;6.90;;
67162;SDS011;54092;53.088;8.850;2023-11-22T08:34:58;15.60;;;7.30;;
67162;SDS011;54092;53.088;8.850;2023-11-22T08:37:24;16.73;;;8.20;;
67162;SDS011;54092;53.088;8.850;2023-11-22T08:39:50;17.48;;;7.45;;
67162;SDS011;54092;53.088;8.850;2023-11-22T08:42:15;21.05;;;9.88;;
67162;SDS011;54092;53.088;8.850;2023-11-22T08:44:41;15.20;;;8.18;;
67162;SDS011;54092;53.088;8.850;2023-11-22T08:47:07;12.75;;;6.72;;
67162;SDS011;54092;53.088;8.850;2023-11-22T08:49:33;19.92;;;8.73;;
67162;SDS011;54092;53.088;8.850;2023-11-22T08:51:59;16.00;;;8.13;;
67162;SDS011;54092;53.088;8.850;2023-11-22T08:54:26;13.38;;;7.50;;
67162;SDS011;54092;53.088;8.850;2023-11-22T08:56:55;15.10;;;7.27;;
67162;SDS011;54092;53.088;8.850;2023-11-22T08:59:21;12.65;;;6.28;;
67162;SDS011;54092;53.088;8.850;2023-11-22T09:01:47;13.82;;;6.78;;
67162;SDS011;54092;53.088;8.850;2023-11-22T09:04:12;15.18;;;7.55;;
67162;SDS011;54092;53.088;8.850;2023-11-22T09:06:38;11.75;;;6.72;;
67162;SDS011;54092;53.088;8.850;2023-11-22T09:09:04;14.55;;;6.53;;
67162;SDS011;54092;53.088;8.850;2023-11-22T09:11:30;14.07;;;7.25;;
67162;SDS011;54092;53.088;8.850;2023-11-22T09:13:56;12.45;;;7.38;;
67162;SDS011;54092;53.088;8.850;2023-11-22T09:16:23;19.42;;;7.35;;
67162;SDS011;54092;53.088;8.850;2023-11-22T09:18:50;14.95;;;6.80;;
67162;SDS011;54092;53.088;8.850;2023-11-22T09:21:16;12.68;;;6.15;;
67162;SDS011;54092;53.088;8.850;2023-11-22T09:23:42;12.80;;;6.43;;
67162;SDS011;54092;53.088;8.850;2023-11-22T09:26:08;12.02;;;6.45;;
67162;SDS011;54092;53.088;8.850;2023-11-22T09:28:33;14.68;;;6.47;;
67162;SDS011;54092;53.088;8.850;2023-11-22T09:30:59;14.50;;;6.43;;
67162;SDS011;54092;53.088;8.850;2023-11-22T09:33:30;15.32;;;7.25;;
67162;SDS011;54092;53.088;8.850;2023-11-22T09:35:57;13.40;;;7.15;;
67162;SDS011;54092;53.088;8.850;2023-11-22T09:38:25;14.70;;;6.70;;
67162;SDS011;54092;53.088;8.850;2023-11-22T09:40:51;11.30;;;5.38;;
67162;SDS011;54092;53.088;8.850;2023-11-22T09:43:17;10.88;;;5.35;;
67162;SDS011;54092;53.088;8.850;2023-11-22T09:45:45;12.88;;;6.57;;
67162;SDS011;54092;53.088;8.850;2023-11-22T09:48:14;12.93;;;6.45;;
67162;SDS011;54092;53.088;8.850;2023-11-22T09:53:19;16.25;;;7.57;;
67162;SDS011;54092;53.088;8.850;2023-11-22T09:55:51;15.82;;;7.40;;
67162;SDS011;54092;53.088;8.850;2023-11-22T09:58:17;15.13;;;7.32;;
67162;SDS011;54092;53.088;8.850;2023-11-22T10:00:44;14.13;;;6.63;;
67162;SDS011;54092;53.088;8.850;2023-11-22T10:03:11;14.00;;;6.55;;
67162;SDS011;54092;53.088;8.850;2023-11-22T10:05:41;12.27;;;6.55;;
67162;SDS011;54092;53.088;8.850;2023-11-22T10:08:07;10.55;;;5.15;;
67162;SDS011;54092;53.088;8.850;2023-11-22T10:10:34;12.45;;;6.35;;
67162;SDS011;54092;53.088;8.850;2023-11-22T10:13:02;10.40;;;5.80;;
67162;SDS011;54092;53.088;8.850;2023-11-22T10:15:28;12.50;;;6.00;;
67162;SDS011;54092;53.088;8.850;2023-11-22T10:17:55;10.00;;;4.65;;
67162;SDS011;54092;53.088;8.850;2023-11-22T10:20:25;10.85;;;5.78;;
67162;SDS011;54092;53.088;8.850;2023-11-22T10:23:07;9.65;;;4.90;;
67162;SDS011;54092;53.088;8.850;2023-11-22T10:25:45;8.48;;;4.55;;
67162;SDS011;54092;53.088;8.850;2023-11-22T10:28:14;8.98;;;4.90;;
67162;SDS011;54092;53.088;8.850;2023-11-22T10:30:40;8.48;;;4.75;;
67162;SDS011;54092;53.088;8.850;2023-11-22T10:33:06;9.02;;;5.20;;
67162;SDS011;54092;53.088;8.850;2023-11-22T10:35:31;8.68;;;4.75;;
67162;SDS011;54092;53.088;8.850;2023-11-22T10:37:59;11.75;;;4.90;;
67162;SDS011;54092;53.088;8.850;2023-11-22T10:40:28;7.78;;;4.25;;
67162;SDS011;54092;53.088;8.850;2023-11-22T10:42:54;9.52;;;4.45;;
67162;SDS011;54092;53.088;8.850;2023-11-22T10:45:21;8.05;;;3.85;;
67162;SDS011;54092;53.088;8.850;2023-11-22T10:47:46;7.68;;;3.70;;
67162;SDS011;54092;53.088;8.850;2023-11-22T10:50:14;4.63;;;2.67;;
67162;SDS011;54092;53.088;8.850;2023-11-22T10:52:41;7.28;;;3.65;;
67162;SDS011;54092;53.088;8.850;2023-11-22T10:55:11;8.02;;;3.38;;
67162;SDS011;54092;53.088;8.850;2023-11-22T10:57:44;6.90;;;3.53;;
67162;SDS011;54092;53.088;8.850;2023-11-22T11:00:13;8.43;;;3.75;;
67162;SDS011;54092;53.088;8.850;2023-11-22T11:02:40;8.38;;;3.22;;
67162;SDS011;54092;53.088;8.850;2023-11-22T11:05:16;7.25;;;3.40;;
67162;SDS011;54092;53.088;8.850;2023-11-22T11:07:53;7.13;;;2.90;;
67162;SDS011;54092;53.088;8.850;2023-11-22T11:10:24;6.32;;;2.80;;
67162;SDS011;54092;53.088;8.850;2023-11-22T11:12:51;7.38;;;3.05;;
67162;SDS011;54092;53.088;8.850;2023-11-22T11:15:18;6.40;;;2.97;;
67162;SDS011;54092;53.088;8.850;2023-11-22T11:17:46;5.20;;;2.55;;
67162;SDS011;54092;53.088;8.850;2023-11-22T11:20:13;5.30;;;2.70;;
67162;SDS011;54092;53.088;8.850;2023-11-22T11:22:42;7.78;;;2.92;;
67162;SDS011;54092;53.088;8.850;2023-11-22T11:25:08;6.20;;;3.22;;
67162;SDS011;54092;53.088;8.850;2023-11-22T11:27:34;6.40;;;3.10;;
67162;SDS011;54092;53.088;8.850;2023-11-22T11:33:05;8.68;;;3.60;;
67162;SDS011;54092;53.088;8.850;2023-11-22T11:35:38;7.05;;;3.15;;
67162;SDS011;54092;53.088;8.850;2023-11-22T11:38:07;6.70;;;3.22;;
67162;SDS011;54092;53.088;8.850;2023-11-22T11:40:34;5.57;;;2.70;;
67162;SDS011;54092;53.088;8.850;2023-11-22T11:43:00;10.02;;;2.88;;
67162;SDS011;54092;53.088;8.850;2023-11-22T11:45:27;5.15;;;2.70;;
67162;SDS011;54092;53.088;8.850;2023-11-22T11:47:53;7.05;;;2.97;;
67162;SDS011;54092;53.088;8.850;2023-11-22T11:50:20;5.18;;;2.70;;
67162;SDS011;54092;53.088;8.850;2023-11-22T11:52:46;4.70;;;2.50;;
67162;SDS011;54092;53.088;8.850;2023-11-22T11:55:13;5.55;;;2.60;;
67162;SDS011;54092;53.088;8.850;2023-11-22T11:57:38;3.97;;;2.20;;
67162;SDS011;54092;53.088;8.850;2023-11-22T12:00:07;5.28;;;2.45;;
67162;SDS011;54092;53.088;8.850;2023-11-22T12:02:34;4.38;;;2.10;;
67162;SDS011;54092;53.088;8.850;2023-11-22T12:05:00;3.08;;;1.90;;
67162;SDS011;54092;53.088;8.850;2023-11-22T12:07:31;5.75;;;2.00;;
67162;SDS011;54092;53.088;8.850;2023-11-22T12:09:56;4.00;;;2.10;;
67162;SDS011;54092;53.088;8.850;2023-11-22T12:12:22;3.67;;;1.70;;
67162;SDS011;54092;53.088;8.850;2023-11-22T12:14:48;3.97;;;2.00;;
67162;SDS011;54092;53.088;8.850;2023-11-22T12:17:14;4.03;;;1.98;;
67162;SDS011;54092;53.088;8.850;2023-11-22T12:19:41;4.05;;;1.90;;
67162;SDS011;54092;53.088;8.850;2023-11-22T12:22:07;4.25;;;2.08;;
67162;SDS011;54092;53.088;8.850;2023-11-22T12:24:33;3.83;;;2.10;;
67162;SDS011;54092;53.088;8.850;2023-11-22T12:26:59;3.55;;;2.10;;
67162;SDS011;54092;53.088;8.850;2023-11-22T12:29:25;5.90;;;2.33;;
67162;SDS011;54092;53.088;8.850;2023-11-22T12:31:51;5.13;;;2.10;;
67162;SDS011;54092;53.088;8.850;2023-11-22T12:34:20;4.50;;;2.17;;
67162;SDS011;54092;53.088;8.850;2023-11-22T12:36:45;4.68;;;2.03;;
67162;SDS011;54092;53.088;8.850;2023-11-22T12:39:15;5.00;;;2.13;;
67162;SDS011;54092;53.088;8.850;2023-11-22T12:41:44;4.63;;;2.30;;
67162;SDS011;54092;53.088;8.850;2023-11-22T12:44:15;7.53;;;2.55;;
67162;SDS011;54092;53.088;8.850;2023-11-22T12:46:48;9.77;;;4.05;;
67162;SDS011;54092;53.088;8.850;2023-11-22T12:49:15;16.60;;;2.95;;
67162;SDS011;54092;53.088;8.850;2023-11-22T12:51:47;8.23;;;2.50;;
67162;SDS011;54092;53.088;8.850;2023-11-22T12:54:17;3.22;;;1.83;;
67162;SDS011;54092;53.088;8.850;2023-11-22T12:56:46;3.27;;;1.70;;
67162;SDS011;54092;53.088;8.850;2023-11-22T12:59:14;7.35;;;2.08;;
67162;SDS011;54092;53.088;8.850;2023-11-22T13:01:40;3.83;;;1.98;;
67162;SDS011;54092;53.088;8.850;2023-11-22T13:04:06;5.60;;;2.47;;
67162;SDS011;54092;53.088;8.850;2023-11-22T13:06:32;5.47;;;2.35;;
67162;SDS011;54092;53.088;8.850;2023-11-22T13:08:57;4.47;;;1.80;;
67162;SDS011;54092;53.088;8.850;2023-11-22T13:11:24;3.97;;;1.90;;
67162;SDS011;54092;53.088;8.850;2023-11-22T13:13:49;3.92;;;1.80;;
67162;SDS011;54092;53.088;8.850;2023-11-22T13:16:15;4.18;;;1.92;;
67162;SDS011;54092;53.088;8.850;2023-11-22T13:18:43;4.10;;;2.20;;
67162;SDS011;54092;53.088;8.850;2023-11-22T13:21:09;3.72;;;2.00;;
67162;SDS011;54092;53.088;8.850;2023-11-22T13:23:35;6.47;;;3.50;;
67162;SDS011;54092;53.088;8.850;2023-11-22T13:26:01;3.60;;;1.85;;
67162;SDS011;54092;53.088;8.850;2023-11-22T13:28:27;5.20;;;1.98;;
67162;SDS011;54092;53.088;8.850;2023-11-22T13:30:52;3.78;;;2.00;;
67162;SDS011;54092;53.088;8.850;2023-11-22T13:33:19;3.53;;;1.80;;
67162;SDS011;54092;53.088;8.850;2023-11-22T13:35:44;5.15;;;2.00;;
67162;SDS011;54092;53.088;8.850;2023-11-22T13:38:11;4.60;;;2.10;;
67162;SDS011;54092;53.088;8.850;2023-11-22T13:40:37;3.60;;;1.77;;
67162;SDS011;54092;53.088;8.850;2023-11-22T13:43:04;3.85;;;2.10;;
67162;SDS011;54092;53.088;8.850;2023-11-22T13:45:31;6.32;;;2.60;;
67162;SDS011;54092;53.088;8.850;2023-11-22T13:47:58;6.63;;;2.72;;
67162;SDS011;54092;53.088;8.850;2023-11-22T13:50:29;4.55;;;2.13;;
67162;SDS011;54092;53.088;8.850;2023-11-22T13:52:55;4.07;;;2.00;;
67162;SDS011;54092;53.088;8.850;2023-11-22T13:55:22;5.32;;;2.17;;
67162;SDS011;54092;53.088;8.850;2023-11-22T13:57:49;5.20;;;2.22;;
67162;SDS011;54092;53.088;8.850;2023-11-22T14:00:15;4.65;;;2.10;;
67162;SDS011;54092;53.088;8.850;2023-11-22T14:02:50;4.28;;;2.00;;
67162;SDS011;54092;53.088;8.850;2023-11-22T14:05:17;3.75;;;2.00;;
67162;SDS011;54092;53.088;8.850;2023-11-22T14:07:43;5.18;;;2.35;;
67162;SDS011;54092;53.088;8.850;2023-11-22T14:10:10;5.22;;;2.20;;
67162;SDS011;54092;53.088;8.850;2023-11-22T14:12:36;5.38;;;2.50;;
67162;SDS011;54092;53.088;8.850;2023-11-22T14:15:03;4.70;;;2.25;;
67162;SDS011;54092;53.088;8.850;2023-11-22T14:17:29;4.50;;;2.22;;
67162;SDS011;54092;53.088;8.850;2023-11-22T14:19:55;4.40;;;2.10;;
67162;SDS011;54092;53.088;8.850;2023-11-22T14:22:21;8.80;;;2.22;;
67162;SDS011;54092;53.088;8.850;2023-11-22T14:24:48;4.80;;;2.30;;
67162;SDS011;54092;53.088;8.850;2023-11-22T14:27:15;4.15;;;2.30;;
67162;SDS011;54092;53.088;8.850;2023-11-22T14:29:41;4.88;;;2.22;;
67162;SDS011;54092;53.088;8.850;2023-11-22T14:32:07;4.60;;;2.38;;
67162;SDS011;54092;53.088;8.850;2023-11-22T14:34:33;5.22;;;2.70;;
67162;SDS011;54092;53.088;8.850;2023-11-22T14:36:59;5.07;;;2.20;;
67162;SDS011;54092;53.088;8.850;2023-11-22T14:39:24;5.57;;;2.65;;